Terminal Aerodrome Forecast
Issued by NWS

Home | Current Version | Previous Version | Text Only | Print | Product List | Glossary On
Versions: 1 2 3 4 5 6 7 8 9 10 11 12 13 14 15 16 17 18 19 20 21
962
FTUS43 KTOP 141141
TAFMHK
TAF
KMHK 141141Z 1412/1512 02004KT P6SM OVC030
     FM150200 05004KT P6SM VCSH OVC015
     FM150600 05005KT 3SM -FZRA BR OVC008=

USA.gov is the U.S. government's official web portal to all federal, state and local government web resources and services.